PWSweather.com
Personal Weather Stations
Station Observations
HAJERN
Hajeren, HvittingfossNO 3647

HajerenHvittingfossNO 3647

Lat: 59.54314324, Lon: 9.95778703

Elevation: 1320

Station Type: Fine Ofset WS 1080

www.hajern.no

High Low Average
Temperature 37.0°F2.8°C 32.4°F0.2°C 34.6°F1.4°C
Dew Point 36.8°F2.7°C 32.1°F0.1°C 34.4°F1.3°C
Winds 8.6 mph 13.8 kmh Calm Calm 3.0 mph SE4.8 kmh SE
Wind Gusts 10.7 mph17.2 kmh -- 5.0 mph8.0 kmh
Humidity 99% 99% 99%
Pressure 30.20 in1022.7 mb 29.88 in1011.9 mb -
Precipitation 0.34 in8.6 mm - -
Hour Temp Dew Point Humidity Winds Wind Gusts Pressure Precip Precip Rate Daily Precip Total
12:00 AM 32.9°F0.5°C 32.7°F0.4°C 99% 1.0 mph SE1.6 kmh SE 1.6 mph2.6 kmh 29.88 in1011.9 mb 0.00 in0.0 mm 0.00 in0.0 mm 0.00 in0.0 mm
12:15 AM 32.9°F0.5°C 32.7°F0.4°C 99% 0.3 mph SW0.5 kmh SW 1.6 mph2.6 kmh 29.89 in1012.2 mb 0.00 in0.0 mm 0.00 in0.0 mm 0.00 in0.0 mm
12:30 AM 33.3°F0.7°C 33.0°F0.6°C 99% 0.4 mph SE0.6 kmh SE 1.6 mph2.6 kmh 29.89 in1012.2 mb 0.00 in0.0 mm 0.00 in0.0 mm 0.00 in0.0 mm
12:45 AM 33.4°F0.8°C 33.2°F0.7°C 99% 0.6 mph SE1.0 kmh SE 2.2 mph3.5 kmh 29.90 in1012.5 mb 0.00 in0.0 mm 0.00 in0.0 mm 0.00 in0.0 mm
01:00 AM 34.2°F1.2°C 33.9°F1.1°C 99% 1.8 mph ESE2.9 kmh ESE 5.4 mph8.7 kmh 29.90 in1012.5 mb 0.00 in0.0 mm 0.00 in0.0 mm 0.00 in0.0 mm
01:15 AM 34.7°F1.5°C 34.5°F1.4°C 99% 2.3 mph SE3.7 kmh SE 4.5 mph7.2 kmh 29.89 in1012.2 mb 0.00 in0.0 mm 0.00 in0.0 mm 0.00 in0.0 mm
01:30 AM 34.9°F1.6°C 34.6°F1.4°C 99% 2.8 mph E4.5 kmh E 4.5 mph7.2 kmh 29.90 in1012.5 mb 0.00 in0.0 mm 0.00 in0.0 mm 0.00 in0.0 mm
01:45 AM 35.1°F1.7°C 34.8°F1.6°C 99% 0.4 mph SSE0.6 kmh SSE 2.2 mph3.5 kmh 29.91 in1012.9 mb 0.00 in0.0 mm 0.00 in0.0 mm 0.00 in0.0 mm
02:00 AM 34.7°F1.5°C 34.5°F1.4°C 99% Calm Calm -- 29.91 in1012.9 mb 0.00 in0.0 mm 0.00 in0.0 mm 0.00 in0.0 mm
02:15 AM 34.2°F1.2°C 33.9°F1.1°C 99% Calm Calm -- 29.91 in1012.9 mb 0.00 in0.0 mm 0.00 in0.0 mm 0.00 in0.0 mm
02:30 AM 34.0°F1.1°C 33.7°F0.9°C 99% Calm Calm -- 29.91 in1012.9 mb 0.00 in0.0 mm 0.00 in0.0 mm 0.00 in0.0 mm
02:45 AM 35.4°F1.9°C 35.2°F1.8°C 99% 0.5 mph SE0.8 kmh SE 6.0 mph9.7 kmh 29.91 in1012.9 mb 0.00 in0.0 mm 0.00 in0.0 mm 0.00 in0.0 mm
03:00 AM 35.6°F2.0°C 35.4°F1.9°C 99% 0.5 mph SW0.8 kmh SW 2.2 mph3.5 kmh 29.92 in1013.2 mb 0.00 in0.0 mm 0.00 in0.0 mm 0.00 in0.0 mm
03:15 AM 36.3°F2.4°C 36.1°F2.3°C 99% 4.1 mph SE6.6 kmh SE 7.6 mph12.2 kmh 29.93 in1013.5 mb 0.00 in0.0 mm 0.00 in0.0 mm 0.00 in0.0 mm
03:30 AM 36.5°F2.5°C 36.2°F2.3°C 99% 2.8 mph SE4.5 kmh SE 5.4 mph8.7 kmh 29.93 in1013.5 mb 0.00 in0.0 mm 0.00 in0.0 mm 0.00 in0.0 mm
03:45 AM 36.1°F2.3°C 35.9°F2.2°C 99% 2.6 mph ESE4.2 kmh ESE 4.5 mph7.2 kmh 29.93 in1013.5 mb 0.00 in0.0 mm 0.00 in0.0 mm 0.00 in0.0 mm
04:00 AM 36.0°F2.2°C 35.7°F2.1°C 99% 1.9 mph E3.1 kmh E 3.1 mph5.0 kmh 29.94 in1013.9 mb 0.00 in0.0 mm 0.00 in0.0 mm 0.00 in0.0 mm
04:15 AM 36.1°F2.3°C 35.9°F2.2°C 99% 2.6 mph SSE4.2 kmh SSE 4.5 mph7.2 kmh 29.94 in1013.9 mb 0.00 in0.0 mm 0.00 in0.0 mm 0.00 in0.0 mm
04:30 AM 36.7°F2.6°C 36.4°F2.4°C 99% 3.5 mph SE5.6 kmh SE 6.0 mph9.7 kmh 29.94 in1013.9 mb 0.00 in0.0 mm 0.00 in0.0 mm 0.00 in0.0 mm
04:45 AM 36.9°F2.7°C 36.6°F2.6°C 99% 6.1 mph SE9.8 kmh SE 9.2 mph14.8 kmh 29.94 in1013.9 mb 0.00 in0.0 mm 0.00 in0.0 mm 0.00 in0.0 mm
05:00 AM 37.0°F2.8°C 36.8°F2.7°C 99% 5.4 mph SE8.7 kmh SE 9.2 mph14.8 kmh 29.94 in1013.9 mb 0.00 in0.0 mm 0.00 in0.0 mm 0.00 in0.0 mm
05:15 AM 37.0°F2.8°C 36.8°F2.7°C 99% 4.7 mph SE7.6 kmh SE 8.3 mph13.4 kmh 29.94 in1013.9 mb 0.00 in0.0 mm 0.00 in0.0 mm 0.00 in0.0 mm
05:30 AM 36.9°F2.7°C 36.6°F2.6°C 99% 2.4 mph SE3.9 kmh SE 6.0 mph9.7 kmh 29.94 in1013.9 mb 0.00 in0.0 mm 0.00 in0.0 mm 0.00 in0.0 mm
05:45 AM 36.9°F2.7°C 36.6°F2.6°C 99% 3.3 mph SE5.3 kmh SE 4.5 mph7.2 kmh 29.95 in1014.2 mb 0.00 in0.0 mm 0.00 in0.0 mm 0.00 in0.0 mm
06:00 AM 36.5°F2.5°C 36.2°F2.3°C 99% 5.8 mph SSE9.3 kmh SSE 8.3 mph13.4 kmh 29.94 in1013.9 mb 0.00 in0.0 mm 0.00 in0.0 mm 0.00 in0.0 mm
06:15 AM 36.1°F2.3°C 35.9°F2.2°C 99% 3.6 mph SE5.8 kmh SE 6.0 mph9.7 kmh 29.95 in1014.2 mb 0.00 in0.0 mm 0.00 in0.0 mm 0.00 in0.0 mm
06:30 AM 36.7°F2.6°C 36.4°F2.4°C 99% 5.4 mph SSE8.7 kmh SSE 7.6 mph12.2 kmh 29.95 in1014.2 mb 0.00 in0.0 mm 0.00 in0.0 mm 0.00 in0.0 mm
06:45 AM 36.9°F2.7°C 36.6°F2.6°C 99% 6.4 mph S10.3 kmh S 8.3 mph13.4 kmh 29.95 in1014.2 mb 0.00 in0.0 mm 0.00 in0.0 mm 0.00 in0.0 mm
07:00 AM 36.9°F2.7°C 36.6°F2.6°C 99% 4.9 mph SE7.9 kmh SE 8.3 mph13.4 kmh 29.95 in1014.2 mb 0.00 in0.0 mm 0.00 in0.0 mm 0.00 in0.0 mm
07:15 AM 36.9°F2.7°C 36.6°F2.6°C 99% 4.2 mph SE6.8 kmh SE 6.9 mph11.1 kmh 29.96 in1014.6 mb 0.00 in0.0 mm 0.00 in0.0 mm 0.00 in0.0 mm
07:30 AM 36.7°F2.6°C 36.4°F2.4°C 99% 4.2 mph SSE6.8 kmh SSE 6.0 mph9.7 kmh 29.96 in1014.6 mb 0.04 in1.0 mm 0.16 in4.1 mm 0.04 in1.0 mm
07:45 AM 36.7°F2.6°C 36.4°F2.4°C 99% 5.8 mph SSE9.3 kmh SSE 8.3 mph13.4 kmh 29.97 in1014.9 mb 0.04 in1.0 mm 0.00 in0.0 mm 0.04 in1.0 mm
08:00 AM 36.7°F2.6°C 36.4°F2.4°C 99% 4.3 mph SSE6.9 kmh SSE 6.0 mph9.7 kmh 29.96 in1014.6 mb 0.04 in1.0 mm 0.00 in0.0 mm 0.04 in1.0 mm
08:15 AM 36.7°F2.6°C 36.4°F2.4°C 99% 4.1 mph SE6.6 kmh SE 6.0 mph9.7 kmh 29.97 in1014.9 mb 0.04 in1.0 mm 0.00 in0.0 mm 0.04 in1.0 mm
08:30 AM 36.3°F2.4°C 36.1°F2.3°C 99% 1.7 mph SE2.7 kmh SE 3.8 mph6.1 kmh 29.97 in1014.9 mb 0.00 in0.0 mm 0.00 in0.0 mm 0.04 in1.0 mm
08:45 AM 36.0°F2.2°C 35.7°F2.1°C 99% 2.1 mph SE3.4 kmh SE 3.8 mph6.1 kmh 29.97 in1014.9 mb 0.00 in0.0 mm 0.00 in0.0 mm 0.04 in1.0 mm
09:00 AM 36.3°F2.4°C 36.1°F2.3°C 99% 3.1 mph SE5.0 kmh SE 7.6 mph12.2 kmh 29.97 in1014.9 mb 0.00 in0.0 mm 0.00 in0.0 mm 0.04 in1.0 mm
09:15 AM 36.7°F2.6°C 36.4°F2.4°C 99% 4.0 mph SE6.4 kmh SE 7.6 mph12.2 kmh 29.97 in1014.9 mb 0.00 in0.0 mm 0.00 in0.0 mm 0.04 in1.0 mm
09:30 AM 36.5°F2.5°C 36.2°F2.3°C 99% 4.0 mph S6.4 kmh S 6.0 mph9.7 kmh 29.97 in1014.9 mb 0.00 in0.0 mm 0.00 in0.0 mm 0.04 in1.0 mm
09:45 AM 36.5°F2.5°C 36.2°F2.3°C 99% 5.1 mph SSE8.2 kmh SSE 7.6 mph12.2 kmh 29.98 in1015.2 mb 0.00 in0.0 mm 0.00 in0.0 mm 0.04 in1.0 mm
10:00 AM 36.5°F2.5°C 36.2°F2.3°C 99% 6.2 mph SSE10.0 kmh SSE 9.2 mph14.8 kmh 29.99 in1015.6 mb 0.00 in0.0 mm 0.00 in0.0 mm 0.04 in1.0 mm
10:15 AM 36.5°F2.5°C 36.2°F2.3°C 99% 8.6 mph SE13.8 kmh SE 10.7 mph17.2 kmh 30.00 in1015.9 mb 0.00 in0.0 mm 0.00 in0.0 mm 0.04 in1.0 mm
10:30 AM 36.5°F2.5°C 36.2°F2.3°C 99% 5.4 mph SE8.7 kmh SE 8.3 mph13.4 kmh 30.00 in1015.9 mb 0.00 in0.0 mm 0.00 in0.0 mm 0.04 in1.0 mm
10:45 AM 36.5°F2.5°C 36.2°F2.3°C 99% 4.0 mph SSE6.4 kmh SSE 7.6 mph12.2 kmh 30.00 in1015.9 mb 0.00 in0.0 mm 0.00 in0.0 mm 0.04 in1.0 mm
11:00 AM 36.7°F2.6°C 36.4°F2.4°C 99% 3.9 mph SSE6.3 kmh SSE 6.9 mph11.1 kmh 30.00 in1015.9 mb 0.00 in0.0 mm 0.00 in0.0 mm 0.04 in1.0 mm
11:15 AM 36.7°F2.6°C 36.4°F2.4°C 99% 5.9 mph SE9.5 kmh SE 9.2 mph14.8 kmh 30.00 in1015.9 mb 0.00 in0.0 mm 0.00 in0.0 mm 0.04 in1.0 mm
11:30 AM 36.5°F2.5°C 36.2°F2.3°C 99% 4.2 mph SSE6.8 kmh SSE 7.6 mph12.2 kmh 30.00 in1015.9 mb 0.00 in0.0 mm 0.00 in0.0 mm 0.04 in1.0 mm
11:45 AM 36.0°F2.2°C 35.7°F2.1°C 99% 2.3 mph SE3.7 kmh SE 5.4 mph8.7 kmh 30.00 in1015.9 mb 0.00 in0.0 mm 0.00 in0.0 mm 0.04 in1.0 mm
12:00 PM 35.1°F1.7°C 34.8°F1.6°C 99% 4.2 mph SSE6.8 kmh SSE 6.9 mph11.1 kmh 30.01 in1016.3 mb 0.04 in1.0 mm 0.05 in1.3 mm 0.08 in2.0 mm
12:15 PM 34.7°F1.5°C 34.5°F1.4°C 99% 2.0 mph N3.2 kmh N 5.4 mph8.7 kmh 30.00 in1015.9 mb 0.08 in2.0 mm 0.16 in4.1 mm 0.11 in2.8 mm
12:30 PM 34.7°F1.5°C 34.5°F1.4°C 99% 4.1 mph SE6.6 kmh SE 6.0 mph9.7 kmh 30.01 in1016.3 mb 0.09 in2.3 mm 0.04 in1.0 mm 0.13 in3.3 mm
12:45 PM 34.7°F1.5°C 34.5°F1.4°C 99% 3.5 mph NNW5.6 kmh NNW 6.9 mph11.1 kmh 30.01 in1016.3 mb 0.09 in2.3 mm 0.00 in0.0 mm 0.13 in3.3 mm
01:00 PM 34.5°F1.4°C 34.3°F1.3°C 99% 3.0 mph SSE4.8 kmh SSE 5.4 mph8.7 kmh 30.02 in1016.6 mb 0.06 in1.5 mm 0.00 in0.0 mm 0.13 in3.3 mm
01:15 PM 34.5°F1.4°C 34.3°F1.3°C 99% 3.6 mph E5.8 kmh E 8.3 mph13.4 kmh 30.02 in1016.6 mb 0.02 in0.5 mm 0.00 in0.0 mm 0.13 in3.3 mm
01:30 PM 34.0°F1.1°C 33.7°F0.9°C 99% 2.5 mph SE4.0 kmh SE 4.5 mph7.2 kmh 30.03 in1016.9 mb 0.02 in0.5 mm 0.00 in0.0 mm 0.15 in3.8 mm
01:45 PM 34.0°F1.1°C 33.7°F0.9°C 99% 3.1 mph SSE5.0 kmh SSE 6.0 mph9.7 kmh 30.02 in1016.6 mb 0.04 in1.0 mm 0.08 in2.0 mm 0.17 in4.3 mm
02:00 PM 33.6°F0.9°C 33.4°F0.8°C 99% 3.9 mph E6.3 kmh E 9.2 mph14.8 kmh 30.02 in1016.6 mb 0.04 in1.0 mm 0.00 in0.0 mm 0.17 in4.3 mm
02:15 PM 33.4°F0.8°C 33.2°F0.7°C 99% 3.9 mph SSE6.3 kmh SSE 6.9 mph11.1 kmh 30.03 in1016.9 mb 0.06 in1.5 mm 0.08 in2.0 mm 0.19 in4.8 mm
02:30 PM 33.4°F0.8°C 33.2°F0.7°C 99% 4.6 mph S7.4 kmh S 9.2 mph14.8 kmh 30.04 in1017.3 mb 0.06 in1.5 mm 0.00 in0.0 mm 0.21 in5.3 mm
03:00 PM 33.3°F0.7°C 33.0°F0.6°C 99% 3.6 mph S5.8 kmh S 6.9 mph11.1 kmh 30.04 in1017.3 mb 0.02 in0.5 mm 0.00 in0.0 mm 0.21 in5.3 mm
03:15 PM 33.3°F0.7°C 33.0°F0.6°C 99% 2.8 mph E4.5 kmh E 4.5 mph7.2 kmh 30.05 in1017.6 mb 0.00 in0.0 mm 0.00 in0.0 mm 0.21 in5.3 mm
03:30 PM 33.1°F0.6°C 32.8°F0.4°C 99% 3.9 mph SSE6.3 kmh SSE 6.0 mph9.7 kmh 30.06 in1017.9 mb 0.00 in0.0 mm 0.00 in0.0 mm 0.21 in5.3 mm
03:45 PM 32.9°F0.5°C 32.7°F0.4°C 99% 2.7 mph SSE4.3 kmh SSE 5.4 mph8.7 kmh 30.06 in1017.9 mb 0.00 in0.0 mm 0.00 in0.0 mm 0.21 in5.3 mm
04:00 PM 32.9°F0.5°C 32.7°F0.4°C 99% 2.5 mph WSW4.0 kmh WSW 5.4 mph8.7 kmh 30.06 in1017.9 mb 0.00 in0.0 mm 0.00 in0.0 mm 0.21 in5.3 mm
04:15 PM 32.9°F0.5°C 32.7°F0.4°C 99% 2.2 mph SE3.5 kmh SE 3.8 mph6.1 kmh 30.07 in1018.3 mb 0.00 in0.0 mm 0.00 in0.0 mm 0.21 in5.3 mm
04:30 PM 32.7°F0.4°C 32.5°F0.3°C 99% 1.8 mph NW2.9 kmh NW 3.1 mph5.0 kmh 30.07 in1018.3 mb 0.00 in0.0 mm 0.00 in0.0 mm 0.21 in5.3 mm
04:45 PM 32.7°F0.4°C 32.5°F0.3°C 99% 0.8 mph NE1.3 kmh NE 3.8 mph6.1 kmh 30.07 in1018.3 mb 0.00 in0.0 mm 0.00 in0.0 mm 0.21 in5.3 mm
05:00 PM 32.5°F0.3°C 32.3°F0.2°C 99% 1.9 mph NE3.1 kmh NE 3.8 mph6.1 kmh 30.08 in1018.6 mb 0.00 in0.0 mm 0.00 in0.0 mm 0.21 in5.3 mm
05:15 PM 32.7°F0.4°C 32.5°F0.3°C 99% 0.4 mph NNW0.6 kmh NNW 1.6 mph2.6 kmh 30.09 in1019.0 mb 0.00 in0.0 mm 0.00 in0.0 mm 0.21 in5.3 mm
05:30 PM 32.9°F0.5°C 32.7°F0.4°C 99% 0.6 mph N1.0 kmh N 2.2 mph3.5 kmh 30.09 in1019.0 mb 0.00 in0.0 mm 0.00 in0.0 mm 0.21 in5.3 mm
05:45 PM 32.9°F0.5°C 32.7°F0.4°C 99% 1.4 mph NE2.3 kmh NE 3.1 mph5.0 kmh 30.10 in1019.3 mb 0.00 in0.0 mm 0.00 in0.0 mm 0.21 in5.3 mm
06:00 PM 33.1°F0.6°C 32.8°F0.4°C 99% 1.9 mph NNE3.1 kmh NNE 3.8 mph6.1 kmh 30.10 in1019.3 mb 0.00 in0.0 mm 0.00 in0.0 mm 0.21 in5.3 mm
06:15 PM 33.1°F0.6°C 32.8°F0.4°C 99% 0.1 mph E0.2 kmh E 2.2 mph3.5 kmh 30.11 in1019.6 mb 0.02 in0.5 mm 0.08 in2.0 mm 0.23 in5.8 mm
06:30 PM 33.1°F0.6°C 32.8°F0.4°C 99% Calm Calm -- 30.10 in1019.3 mb 0.04 in1.0 mm 0.08 in2.0 mm 0.25 in6.4 mm
06:45 PM 33.3°F0.7°C 33.0°F0.6°C 99% 1.6 mph NE2.6 kmh NE 3.1 mph5.0 kmh 30.11 in1019.6 mb 0.06 in1.5 mm 0.08 in2.0 mm 0.26 in6.6 mm
07:00 PM 33.3°F0.7°C 33.0°F0.6°C 99% 1.6 mph SW2.6 kmh SW 4.5 mph7.2 kmh 30.11 in1019.6 mb 0.08 in2.0 mm 0.03 in0.8 mm 0.28 in7.1 mm
07:15 PM 33.3°F0.7°C 33.0°F0.6°C 99% 1.6 mph ENE2.6 kmh ENE 6.9 mph11.1 kmh 30.11 in1019.6 mb 0.06 in1.5 mm 0.00 in0.0 mm 0.30 in7.6 mm
07:30 PM 34.0°F1.1°C 33.7°F0.9°C 99% 2.0 mph SSE3.2 kmh SSE 4.5 mph7.2 kmh 30.12 in1020.0 mb 0.04 in1.0 mm 0.00 in0.0 mm 0.30 in7.6 mm
07:45 PM 33.1°F0.6°C 32.8°F0.4°C 99% 2.4 mph SSW3.9 kmh SSW 6.9 mph11.1 kmh 30.12 in1020.0 mb 0.06 in1.5 mm 0.08 in2.0 mm 0.32 in8.1 mm
08:00 PM 32.9°F0.5°C 32.7°F0.4°C 99% 2.0 mph SW3.2 kmh SW 4.5 mph7.2 kmh 30.12 in1020.0 mb 0.04 in1.0 mm 0.00 in0.0 mm 0.32 in8.1 mm
08:15 PM 32.9°F0.5°C 32.7°F0.4°C 99% 1.8 mph NNW2.9 kmh NNW 3.1 mph5.0 kmh 30.12 in1020.0 mb 0.02 in0.5 mm 0.00 in0.0 mm 0.32 in8.1 mm
08:30 PM 33.1°F0.6°C 32.8°F0.4°C 99% 2.6 mph N4.2 kmh N 6.0 mph9.7 kmh 30.13 in1020.3 mb 0.02 in0.5 mm 0.00 in0.0 mm 0.32 in8.1 mm
08:45 PM 33.1°F0.6°C 32.8°F0.4°C 99% 2.4 mph SW3.9 kmh SW 3.8 mph6.1 kmh 30.14 in1020.7 mb 0.00 in0.0 mm 0.00 in0.0 mm 0.32 in8.1 mm
09:00 PM 33.3°F0.7°C 33.0°F0.6°C 99% 3.0 mph NNE4.8 kmh NNE 4.5 mph7.2 kmh 30.14 in1020.7 mb 0.00 in0.0 mm 0.00 in0.0 mm 0.32 in8.1 mm
09:15 PM 33.1°F0.6°C 32.8°F0.4°C 99% 2.8 mph NE4.5 kmh NE 5.4 mph8.7 kmh 30.15 in1021.0 mb 0.02 in0.5 mm 0.08 in2.0 mm 0.34 in8.6 mm
09:30 PM 33.1°F0.6°C 32.8°F0.4°C 99% 2.2 mph N3.5 kmh N 3.8 mph6.1 kmh 30.16 in1021.3 mb 0.02 in0.5 mm 0.00 in0.0 mm 0.34 in8.6 mm
09:45 PM 32.9°F0.5°C 32.7°F0.4°C 99% 2.1 mph NE3.4 kmh NE 4.5 mph7.2 kmh 30.17 in1021.7 mb 0.02 in0.5 mm 0.00 in0.0 mm 0.34 in8.6 mm
10:00 PM 32.9°F0.5°C 32.7°F0.4°C 99% 1.6 mph NE2.6 kmh NE 3.1 mph5.0 kmh 30.16 in1021.3 mb 0.02 in0.5 mm 0.00 in0.0 mm 0.34 in8.6 mm
10:15 PM 32.7°F0.4°C 32.5°F0.3°C 99% 1.5 mph N2.4 kmh N 3.8 mph6.1 kmh 30.17 in1021.7 mb 0.00 in0.0 mm 0.00 in0.0 mm 0.34 in8.6 mm
10:30 PM 32.9°F0.5°C 32.7°F0.4°C 99% 2.2 mph ENE3.5 kmh ENE 3.8 mph6.1 kmh 30.18 in1022.0 mb 0.00 in0.0 mm 0.00 in0.0 mm 0.34 in8.6 mm
10:45 PM 32.7°F0.4°C 32.5°F0.3°C 99% 2.4 mph NE3.9 kmh NE 5.4 mph8.7 kmh 30.18 in1022.0 mb 0.00 in0.0 mm 0.00 in0.0 mm 0.34 in8.6 mm
11:00 PM 32.5°F0.3°C 32.3°F0.2°C 99% 2.5 mph ENE4.0 kmh ENE 4.5 mph7.2 kmh 30.18 in1022.0 mb 0.00 in0.0 mm 0.00 in0.0 mm 0.34 in8.6 mm
11:15 PM 32.5°F0.3°C 32.3°F0.2°C 99% 2.5 mph N4.0 kmh N 4.5 mph7.2 kmh 30.18 in1022.0 mb 0.00 in0.0 mm 0.00 in0.0 mm 0.34 in8.6 mm
11:30 PM 32.5°F0.3°C 32.3°F0.2°C 99% 1.0 mph ENE1.6 kmh ENE 6.0 mph9.7 kmh 30.19 in1022.4 mb 0.00 in0.0 mm 0.00 in0.0 mm 0.34 in8.6 mm
11:45 PM 32.4°F0.2°C 32.1°F0.1°C 99% Calm Calm -- 30.20 in1022.7 mb 0.00 in0.0 mm 0.00 in0.0 mm 0.34 in8.6 mm